createdAt,value
2019-03-01T00:00:14.812Z,12.70
2019-03-01T00:02:44.297Z,12.50
2019-03-01T00:06:13.410Z,12.30
2019-03-01T00:09:39.106Z,12.14
2019-03-01T00:12:23.289Z,12.08
2019-03-01T00:15:11.346Z,12.44
2019-03-01T00:18:16.410Z,11.87
2019-03-01T00:21:20.947Z,12.14
2019-03-01T00:24:43.644Z,12.05
2019-03-01T00:27:50.883Z,11.98
2019-03-01T00:31:16.495Z,12.31
2019-03-01T00:34:28.880Z,12.32
2019-03-01T00:37:36.827Z,12.52
2019-03-01T00:40:30.438Z,11.95
2019-03-01T00:43:32.230Z,11.93
2019-03-01T00:46:01.707Z,11.67
2019-03-01T00:48:31.192Z,11.67
2019-03-01T00:51:00.715Z,11.71
2019-03-01T00:53:30.295Z,11.91
2019-03-01T00:55:59.786Z,12.09
2019-03-01T00:58:29.270Z,12.44
2019-03-01T01:00:58.784Z,11.96
2019-03-01T01:03:28.286Z,12.03
2019-03-01T01:05:57.781Z,11.81
2019-03-01T01:08:27.349Z,12.07
2019-03-01T01:10:56.925Z,11.98
2019-03-01T01:13:26.413Z,11.90
2019-03-01T01:15:55.967Z,12.12
2019-03-01T01:18:25.459Z,11.77
2019-03-01T01:20:54.987Z,11.61
2019-03-01T01:23:24.467Z,11.33
2019-03-01T01:25:54.016Z,11.43
2019-03-01T01:28:23.526Z,11.34
2019-03-01T01:30:53.027Z,11.36
2019-03-01T01:33:22.515Z,11.77
2019-03-01T01:35:52.018Z,11.50
2019-03-01T01:38:21.489Z,11.73
2019-03-01T01:40:50.994Z,11.57
2019-03-01T01:43:20.464Z,11.42
2019-03-01T01:45:51.729Z,11.43
2019-03-01T01:48:21.300Z,11.30
2019-03-01T01:50:50.850Z,11.64
2019-03-01T01:53:20.429Z,11.43
2019-03-01T01:55:49.867Z,11.38
2019-03-01T01:58:19.343Z,11.38
2019-03-01T02:00:48.907Z,11.52
2019-03-01T02:03:18.412Z,11.08
2019-03-01T02:05:47.985Z,11.09
2019-03-01T02:08:17.558Z,10.85
2019-03-01T02:10:47.144Z,11.11
2019-03-01T02:13:16.696Z,12.31
2019-03-01T02:15:46.371Z,12.68
2019-03-01T02:18:15.838Z,12.64
2019-03-01T02:20:45.316Z,12.22
2019-03-01T02:23:14.804Z,12.46
2019-03-01T02:25:44.273Z,12.34
2019-03-01T02:28:13.778Z,12.05
2019-03-01T02:30:43.349Z,11.84
2019-03-01T02:33:13.162Z,11.56
2019-03-01T02:35:42.648Z,11.13
2019-03-01T02:38:12.133Z,11.28
2019-03-01T02:40:41.614Z,11.57
2019-03-01T02:43:11.174Z,11.71
2019-03-01T02:45:40.708Z,11.70
2019-03-01T02:48:10.192Z,11.93
2019-03-01T02:50:39.760Z,11.91
2019-03-01T02:53:09.251Z,12.13
2019-03-01T02:55:38.719Z,12.26
2019-03-01T02:58:08.256Z,12.31
2019-03-01T03:00:37.825Z,12.37
2019-03-01T03:03:07.370Z,12.27
2019-03-01T03:05:50.502Z,12.33
2019-03-01T03:08:19.975Z,12.40
2019-03-01T03:10:49.529Z,12.28
2019-03-01T03:13:18.997Z,12.39
2019-03-01T03:15:50.056Z,12.29
2019-03-01T03:18:19.572Z,12.40
2019-03-01T03:20:49.047Z,12.41
2019-03-01T03:23:18.602Z,12.44
2019-03-01T03:25:48.105Z,12.49
2019-03-01T03:28:17.636Z,12.25
2019-03-01T03:30:47.102Z,12.31
2019-03-01T03:33:16.587Z,12.35
2019-03-01T03:35:46.063Z,12.35
2019-03-01T03:38:15.539Z,12.33
2019-03-01T03:40:45.022Z,12.33
2019-03-01T03:43:14.499Z,12.32
2019-03-01T03:45:44.050Z,12.43
2019-03-01T03:48:13.535Z,12.34
2019-03-01T03:50:43.026Z,12.09
2019-03-01T03:53:12.559Z,11.93
2019-03-01T03:55:42.093Z,11.99
2019-03-01T03:58:11.593Z,11.98
2019-03-01T04:00:41.229Z,12.31
2019-03-01T04:03:10.722Z,12.43
2019-03-01T04:05:40.167Z,12.32
2019-03-01T04:08:09.647Z,12.28
2019-03-01T04:10:39.187Z,12.27
2019-03-01T04:13:08.651Z,12.08
2019-03-01T04:15:38.108Z,12.07
2019-03-01T04:18:07.655Z,12.27
2019-03-01T04:20:37.124Z,12.29
2019-03-01T04:23:06.660Z,12.13
2019-03-01T04:25:36.136Z,12.29
2019-03-01T04:28:05.695Z,12.17
2019-03-01T04:30:35.147Z,12.24
2019-03-01T04:33:04.684Z,12.21
2019-03-01T04:35:34.146Z,12.24
2019-03-01T04:38:03.645Z,12.20
2019-03-01T04:40:33.109Z,11.95
2019-03-01T04:43:02.586Z,11.92
2019-03-01T04:45:32.131Z,11.89
2019-03-01T04:48:01.596Z,11.88
2019-03-01T04:50:31.082Z,11.76
2019-03-01T04:53:00.629Z,11.93
2019-03-01T04:55:30.083Z,11.88
2019-03-01T04:57:59.599Z,11.71
2019-03-01T05:00:29.065Z,11.96
2019-03-01T05:02:58.638Z,11.68
2019-03-01T05:05:28.118Z,11.77
2019-03-01T05:07:57.670Z,11.79
2019-03-01T05:10:27.143Z,11.82
2019-03-01T05:12:56.625Z,11.97
2019-03-01T05:15:26.247Z,11.91
2019-03-01T05:17:55.790Z,12.01
2019-03-01T05:20:25.273Z,12.24
2019-03-01T05:22:54.749Z,12.25
2019-03-01T05:25:24.225Z,12.17
2019-03-01T05:27:53.678Z,11.95
2019-03-01T05:30:23.251Z,11.66
2019-03-01T05:32:52.704Z,11.94
2019-03-01T05:35:22.242Z,11.76
2019-03-01T05:37:51.712Z,11.66
2019-03-01T05:40:21.194Z,11.91
2019-03-01T05:42:50.659Z,12.00
2019-03-01T05:45:21.974Z,12.01
2019-03-01T05:47:51.481Z,11.96
2019-03-01T05:50:21.035Z,11.95
2019-03-01T05:52:50.515Z,11.97
2019-03-01T05:55:20.144Z,12.08
2019-03-01T05:58:38.940Z,12.05
2019-03-01T06:01:36.118Z,12.06
2019-03-01T06:04:12.646Z,12.16
2019-03-01T06:07:06.197Z,12.01
2019-03-01T06:10:03.637Z,12.04
2019-03-01T06:13:04.035Z,11.96
2019-03-01T06:16:03.710Z,11.92
2019-03-01T06:19:19.117Z,11.79
2019-03-01T06:22:33.185Z,11.55
2019-03-01T06:25:28.738Z,11.77
2019-03-01T06:28:33.397Z,11.52
2019-03-01T06:31:39.828Z,11.80
2019-03-01T06:34:52.499Z,11.83
2019-03-01T06:38:04.714Z,11.65
2019-03-01T06:41:24.712Z,11.80
2019-03-01T06:44:26.070Z,11.87
2019-03-01T06:47:24.180Z,11.72
2019-03-01T06:50:09.997Z,11.87
2019-03-01T06:52:39.466Z,11.77
2019-03-01T06:55:13.958Z,11.78
2019-03-01T06:57:43.419Z,11.71
2019-03-01T07:00:13.077Z,11.61
2019-03-01T07:02:45.216Z,11.56
2019-03-01T07:05:14.691Z,11.69
2019-03-01T07:07:44.258Z,11.79
2019-03-01T07:10:13.711Z,11.63
2019-03-01T07:12:43.172Z,11.73
2019-03-01T07:15:12.697Z,11.63
2019-03-01T07:17:42.230Z,11.55
2019-03-01T07:20:12.748Z,11.67
2019-03-01T07:22:42.268Z,11.67
2019-03-01T07:25:11.809Z,11.51
2019-03-01T07:27:41.299Z,11.64
2019-03-01T07:30:10.858Z,11.61
2019-03-01T07:32:40.347Z,11.78
2019-03-01T07:35:09.920Z,11.87
2019-03-01T07:37:39.407Z,11.73
2019-03-01T07:40:09.077Z,11.66
2019-03-01T07:42:38.630Z,11.59
2019-03-01T07:45:09.142Z,11.79
2019-03-01T07:47:38.625Z,11.87
2019-03-01T07:50:08.509Z,11.87
2019-03-01T07:52:38.078Z,11.71
2019-03-01T07:55:09.262Z,11.87
2019-03-01T07:57:38.843Z,12.00
2019-03-01T08:00:14.246Z,11.98
2019-03-01T08:02:42.509Z,12.00
2019-03-01T08:05:12.433Z,11.94
2019-03-01T08:07:41.995Z,12.03
2019-03-01T08:10:11.939Z,12.01
2019-03-01T08:12:42.500Z,12.00
2019-03-01T08:15:13.983Z,12.00
2019-03-01T08:17:43.449Z,12.11
2019-03-01T08:20:14.877Z,12.10
2019-03-01T08:22:48.749Z,12.07
2019-03-01T08:25:22.695Z,11.96
2019-03-01T08:27:47.815Z,11.88
2019-03-01T08:30:18.340Z,11.97
2019-03-01T08:32:47.872Z,11.76
2019-03-01T08:35:17.345Z,11.86
2019-03-01T08:37:49.965Z,11.84
2019-03-01T08:40:18.236Z,12.04
2019-03-01T08:42:47.705Z,11.80
2019-03-01T08:45:17.291Z,11.68
2019-03-01T08:47:48.609Z,11.62
2019-03-01T08:50:18.128Z,11.60
2019-03-01T08:52:47.950Z,11.50
2019-03-01T08:55:18.236Z,11.57
2019-03-01T08:57:47.708Z,11.51
2019-03-01T09:00:23.151Z,11.51
2019-03-01T09:02:51.259Z,11.70
2019-03-01T09:05:20.721Z,11.66
2019-03-01T09:07:50.274Z,11.20
2019-03-01T09:10:19.807Z,11.47
2019-03-01T09:12:49.343Z,11.16
2019-03-01T09:15:18.852Z,11.19
2019-03-01T09:17:48.333Z,11.31
2019-03-01T09:20:17.818Z,11.90
2019-03-01T09:22:47.283Z,12.12
2019-03-01T09:25:17.002Z,12.28
2019-03-01T09:27:46.460Z,12.44
2019-03-01T09:30:18.240Z,12.28
2019-03-01T09:32:47.712Z,12.06
2019-03-01T09:35:35.343Z,11.94
2019-03-01T09:38:07.699Z,12.17
2019-03-01T09:40:36.837Z,12.33
2019-03-01T09:43:06.343Z,11.95
2019-03-01T09:45:36.787Z,12.17
2019-03-01T09:48:08.798Z,12.09
2019-03-01T09:50:38.346Z,11.85
2019-03-01T09:53:07.922Z,12.02
2019-03-01T09:55:38.454Z,11.98
2019-03-01T09:58:08.590Z,12.23
2019-03-01T10:00:39.556Z,12.45
2019-03-01T10:03:09.083Z,12.42
2019-03-01T10:05:38.554Z,12.48
2019-03-01T10:08:08.038Z,12.38
2019-03-01T10:10:37.607Z,12.38
2019-03-01T10:13:07.145Z,12.49
2019-03-01T10:15:36.636Z,12.22
2019-03-01T10:18:06.104Z,12.35
2019-03-01T10:20:35.576Z,12.36
2019-03-01T10:23:05.119Z,12.14
2019-03-01T10:25:34.668Z,12.13
2019-03-01T10:28:04.232Z,12.26
2019-03-01T10:30:33.944Z,12.34
2019-03-01T10:33:03.420Z,12.38
2019-03-01T10:35:32.970Z,12.34
2019-03-01T10:38:02.517Z,12.38
2019-03-01T10:40:31.991Z,12.33
2019-03-01T10:43:01.496Z,12.41
2019-03-01T10:45:31.080Z,12.45
2019-03-01T10:48:00.647Z,12.64
2019-03-01T10:50:30.190Z,12.39
2019-03-01T10:52:59.579Z,12.50
2019-03-01T10:55:29.124Z,12.38
2019-03-01T10:57:58.598Z,12.49
2019-03-01T11:00:29.148Z,12.46
2019-03-01T11:02:59.266Z,12.56
2019-03-01T11:05:29.233Z,12.67
2019-03-01T11:07:59.120Z,12.49
2019-03-01T11:10:31.439Z,12.67
2019-03-01T11:13:01.480Z,12.60
2019-03-01T11:15:31.028Z,12.54
2019-03-01T11:18:00.540Z,12.67
2019-03-01T11:20:30.070Z,12.42
2019-03-01T11:22:59.645Z,12.44
2019-03-01T11:25:29.191Z,12.38
2019-03-01T11:27:59.569Z,12.23
2019-03-01T11:30:30.647Z,12.31
2019-03-01T11:33:00.109Z,12.42
2019-03-01T11:35:29.664Z,12.45
2019-03-01T11:37:59.330Z,12.48
2019-03-01T11:40:30.799Z,12.05
2019-03-01T11:43:00.515Z,12.05
2019-03-01T11:45:29.983Z,12.34
2019-03-01T11:47:59.514Z,12.41
2019-03-01T11:50:29.037Z,12.29
2019-03-01T11:52:58.604Z,12.26
2019-03-01T11:55:28.072Z,12.31
2019-03-01T11:57:57.649Z,12.48
2019-03-01T12:00:27.497Z,12.61
2019-03-01T12:02:57.099Z,12.59
2019-03-01T12:05:26.573Z,12.30
2019-03-01T12:07:56.063Z,11.97
2019-03-01T12:10:26.045Z,12.23
2019-03-01T12:12:55.598Z,12.36
2019-03-01T12:15:25.230Z,12.46
2019-03-01T12:17:54.816Z,12.46
2019-03-01T12:20:24.388Z,12.65
2019-03-01T12:22:54.057Z,12.57
2019-03-01T12:25:23.953Z,12.71
2019-03-01T12:27:53.419Z,12.83
2019-03-01T12:30:24.652Z,12.70
2019-03-01T12:32:54.228Z,12.74
2019-03-01T12:35:23.795Z,12.77
2019-03-01T12:37:53.347Z,12.68
2019-03-01T12:40:24.176Z,12.36
2019-03-01T12:42:54.016Z,12.25
2019-03-01T12:45:23.942Z,12.65
2019-03-01T12:47:54.634Z,12.43
2019-03-01T12:50:24.598Z,12.53
2019-03-01T12:52:54.870Z,12.72
2019-03-01T12:55:25.171Z,12.55
2019-03-01T12:57:55.724Z,12.53
2019-03-01T13:00:28.075Z,12.54
2019-03-01T13:03:00.055Z,12.79
2019-03-01T13:05:30.314Z,12.56
2019-03-01T13:07:59.828Z,12.68
2019-03-01T13:10:29.727Z,12.46
2019-03-01T13:13:02.248Z,12.50
2019-03-01T13:15:30.547Z,12.50
2019-03-01T13:17:59.999Z,12.49
2019-03-01T13:20:29.983Z,12.28
2019-03-01T13:23:01.012Z,12.16
2019-03-01T13:25:30.625Z,12.25
2019-03-01T13:28:00.099Z,12.45
2019-03-01T13:30:32.535Z,12.52
2019-03-01T13:33:02.558Z,12.45
2019-03-01T13:35:32.128Z,12.53
2019-03-01T13:38:03.662Z,12.30
2019-03-01T13:40:32.871Z,12.48
2019-03-01T13:43:02.343Z,12.25
2019-03-01T13:45:31.819Z,12.29
2019-03-01T13:48:03.212Z,12.50
2019-03-01T13:50:32.488Z,12.29
2019-03-01T13:53:01.951Z,12.18
2019-03-01T13:55:31.436Z,12.30
2019-03-01T13:58:00.985Z,12.30
2019-03-01T14:00:30.528Z,12.46
2019-03-01T14:03:00.026Z,12.57
2019-03-01T14:05:29.488Z,12.87
2019-03-01T14:08:08.401Z,12.87
2019-03-01T14:10:30.570Z,13.00
2019-03-01T14:13:00.144Z,13.08
2019-03-01T14:15:30.016Z,13.18
2019-03-01T14:18:01.283Z,13.17
2019-03-01T14:20:30.904Z,13.15
2019-03-01T14:23:00.385Z,13.27
2019-03-01T14:25:30.446Z,13.35
2019-03-01T14:28:02.071Z,13.42
2019-03-01T14:30:33.247Z,13.42
2019-03-01T14:33:02.628Z,13.47
2019-03-01T14:35:33.152Z,13.10
2019-03-01T14:38:03.943Z,13.12
2019-03-01T14:40:33.442Z,13.11
2019-03-01T14:43:03.003Z,13.25
2019-03-01T14:45:32.702Z,13.28
2019-03-01T14:48:04.991Z,13.28
2019-03-01T14:50:53.217Z,13.36
2019-03-01T14:53:22.677Z,13.35
2019-03-01T14:55:58.843Z,13.26
2019-03-01T14:58:32.107Z,13.37
2019-03-01T15:01:09.296Z,13.28
2019-03-01T15:03:39.575Z,13.36
2019-03-01T15:06:09.803Z,13.48
2019-03-01T15:08:44.085Z,13.40
2019-03-01T15:11:16.244Z,13.52
2019-03-01T15:13:46.860Z,13.47
2019-03-01T15:16:16.482Z,13.04
2019-03-01T15:19:35.658Z,12.84
2019-03-01T15:22:05.487Z,12.68
2019-03-01T15:24:36.187Z,12.94
2019-03-01T15:27:06.157Z,12.62
2019-03-01T15:29:35.660Z,12.30
2019-03-01T15:32:05.230Z,12.71
2019-03-01T15:34:34.707Z,12.79
2019-03-01T15:37:04.324Z,12.52
2019-03-01T15:39:33.884Z,12.26
2019-03-01T15:42:03.395Z,12.18
2019-03-01T15:44:32.867Z,12.05
2019-03-01T15:47:02.346Z,11.96
2019-03-01T15:49:31.906Z,12.13
2019-03-01T15:52:01.401Z,12.00
2019-03-01T15:54:32.457Z,11.87
2019-03-01T15:57:02.109Z,12.14
2019-03-01T15:59:31.584Z,12.07
2019-03-01T16:02:01.160Z,12.20
2019-03-01T16:04:33.665Z,11.96
2019-03-01T16:07:01.828Z,12.25
2019-03-01T16:09:31.328Z,11.74
2019-03-01T16:12:00.880Z,11.72
2019-03-01T16:14:30.359Z,11.87
2019-03-01T16:16:59.972Z,12.11
2019-03-01T16:19:29.430Z,12.01
2019-03-01T16:22:00.542Z,11.76
2019-03-01T16:24:30.120Z,11.55
2019-03-01T16:27:37.441Z,11.57
2019-03-01T16:30:02.266Z,11.77
2019-03-01T16:32:31.782Z,11.60
2019-03-01T16:35:01.336Z,11.72
2019-03-01T16:37:30.857Z,11.54
2019-03-01T16:40:01.464Z,11.40
2019-03-01T16:42:38.249Z,11.14
2019-03-01T16:45:02.340Z,11.67
2019-03-01T16:47:31.809Z,11.08
2019-03-01T16:50:02.991Z,11.39
2019-03-01T16:52:32.556Z,11.34
2019-03-01T16:55:02.030Z,11.22
2019-03-01T16:57:31.496Z,11.45
2019-03-01T17:00:01.054Z,11.52
2019-03-01T17:02:30.589Z,11.64
2019-03-01T17:05:03.754Z,11.62
2019-03-01T17:07:31.257Z,10.90
2019-03-01T17:10:01.033Z,10.95
2019-03-01T17:12:30.588Z,11.06
2019-03-01T17:15:01.411Z,11.14
2019-03-01T17:17:33.134Z,11.30
2019-03-01T17:20:03.672Z,11.00
2019-03-01T17:22:33.153Z,10.90
2019-03-01T17:25:02.639Z,10.95
2019-03-01T17:27:32.107Z,11.13
2019-03-01T17:30:01.584Z,10.99
2019-03-01T17:32:31.033Z,10.92
2019-03-01T17:35:00.987Z,10.84
2019-03-01T17:37:32.433Z,11.15
2019-03-01T17:40:01.943Z,10.70
2019-03-01T17:42:31.453Z,11.31
2019-03-01T17:45:00.945Z,11.10
2019-03-01T17:47:30.419Z,11.10
2019-03-01T17:49:59.912Z,10.98
2019-03-01T17:52:30.506Z,11.19
2019-03-01T17:55:01.469Z,11.18
2019-03-01T17:57:33.002Z,10.80
2019-03-01T18:00:02.905Z,10.63
2019-03-01T18:02:32.357Z,10.48
2019-03-01T18:05:01.858Z,10.95
2019-03-01T18:07:31.393Z,10.49
2019-03-01T18:10:00.957Z,10.75
2019-03-01T18:12:30.442Z,10.71
2019-03-01T18:14:59.900Z,10.48
2019-03-01T18:17:29.460Z,10.50
2019-03-01T18:20:01.593Z,10.38
2019-03-01T18:22:30.094Z,10.39
2019-03-01T18:24:59.570Z,10.41
2019-03-01T18:27:29.125Z,10.56
2019-03-01T18:29:58.613Z,10.42
2019-03-01T18:32:28.130Z,10.62
2019-03-01T18:34:57.616Z,10.78
2019-03-01T18:37:27.448Z,10.81
2019-03-01T18:39:57.007Z,10.70
2019-03-01T18:42:26.450Z,10.95
2019-03-01T18:44:55.917Z,10.84
2019-03-01T18:47:27.918Z,10.83
2019-03-01T18:49:56.665Z,10.82
2019-03-01T18:52:26.224Z,10.79
2019-03-01T18:54:55.720Z,10.45
2019-03-01T18:57:25.187Z,10.52
2019-03-01T18:59:56.488Z,10.64
2019-03-01T19:02:27.623Z,10.90
2019-03-01T19:04:57.200Z,10.88
2019-03-01T19:07:27.463Z,10.92
2019-03-01T19:09:57.892Z,10.81
2019-03-01T19:12:27.444Z,10.56
2019-03-01T19:14:56.990Z,10.58
2019-03-01T19:17:26.584Z,10.53
2019-03-01T19:19:56.063Z,10.51
2019-03-01T19:22:28.339Z,10.47
2019-03-01T19:24:56.751Z,10.54
2019-03-01T19:27:26.305Z,10.20
2019-03-01T19:29:55.805Z,10.35
2019-03-01T19:32:26.851Z,10.24
2019-03-01T19:34:56.500Z,10.01
2019-03-01T19:37:25.996Z,10.14
2019-03-01T19:39:55.555Z,10.43
2019-03-01T19:42:25.037Z,10.23
2019-03-01T19:44:54.568Z,10.17
2019-03-01T19:47:26.468Z,10.18
2019-03-01T19:49:55.336Z,10.18
2019-03-01T19:52:24.854Z,10.32
2019-03-01T19:54:54.403Z,10.38
2019-03-01T19:57:23.980Z,10.46
2019-03-01T19:59:53.441Z,10.01
2019-03-01T20:02:22.953Z,10.34
2019-03-01T20:04:55.422Z,10.26
2019-03-01T20:07:23.607Z,10.27
2019-03-01T20:09:53.110Z,10.13
2019-03-01T20:12:22.591Z,10.37
2019-03-01T20:14:52.068Z,10.48
2019-03-01T20:17:21.636Z,10.46
2019-03-01T20:19:53.593Z,10.17
2019-03-01T20:22:22.310Z,10.39
2019-03-01T20:24:51.783Z,10.34
2019-03-01T20:27:21.345Z,10.37
2019-03-01T20:29:52.492Z,10.12
2019-03-01T20:32:21.998Z,10.04
2019-03-01T20:34:51.476Z,10.14
2019-03-01T20:37:20.975Z,10.06
2019-03-01T20:39:51.016Z,10.24
2019-03-01T20:42:23.809Z,10.19
2019-03-01T20:44:53.103Z,10.38
2019-03-01T20:47:23.305Z,10.09
2019-03-01T20:49:52.801Z,9.94
2019-03-01T20:52:22.360Z,10.18
2019-03-01T20:54:51.847Z,10.08
2019-03-01T20:57:23.877Z,10.24
2019-03-01T20:59:52.511Z,10.07
2019-03-01T21:02:21.992Z,10.14
2019-03-01T21:04:53.552Z,10.13
2019-03-01T21:07:22.673Z,10.23
2019-03-01T21:09:52.167Z,10.42
2019-03-01T21:12:21.647Z,10.28
2019-03-01T21:14:51.214Z,10.22
2019-03-01T21:17:21.614Z,10.15
2019-03-01T21:19:51.149Z,10.41
2019-03-01T21:22:20.630Z,10.52
2019-03-01T21:24:50.184Z,10.33
2019-03-01T21:27:22.618Z,10.07
2019-03-01T21:29:50.914Z,10.42
2019-03-01T21:32:20.398Z,10.06
2019-03-01T21:34:49.879Z,10.04
2019-03-01T21:37:19.366Z,10.21
2019-03-01T21:39:48.855Z,10.51
2019-03-01T21:42:20.264Z,10.53
2019-03-01T21:44:49.974Z,10.70
2019-03-01T21:47:19.459Z,10.07
2019-03-01T21:49:48.929Z,10.16
2019-03-01T21:52:18.428Z,10.32
2019-03-01T21:54:48.522Z,10.18
2019-03-01T21:57:19.080Z,10.01
2019-03-01T21:59:49.720Z,10.19
2019-03-01T22:02:19.800Z,10.44
2019-03-01T22:04:49.279Z,10.00
2019-03-01T22:07:18.776Z,10.16
2019-03-01T22:09:48.278Z,10.32
2019-03-01T22:12:20.915Z,10.20
2019-03-01T22:14:49.176Z,10.33
2019-03-01T22:17:19.255Z,10.49
2019-03-01T22:19:48.744Z,10.56
2019-03-01T22:22:18.273Z,10.36
2019-03-01T22:24:47.776Z,9.95
2019-03-01T22:27:17.259Z,10.12
2019-03-01T22:29:47.156Z,9.80
2019-03-01T22:32:17.989Z,10.06
2019-03-01T22:34:47.486Z,10.01
2019-03-01T22:37:17.020Z,10.10
2019-03-01T22:39:48.330Z,10.10
2019-03-01T22:42:17.702Z,10.18
2019-03-01T22:44:47.308Z,10.35
2019-03-01T22:47:18.119Z,10.51
2019-03-01T22:49:47.618Z,10.45
2019-03-01T22:52:17.094Z,10.72
2019-03-01T22:54:46.574Z,10.70
2019-03-01T22:57:16.046Z,10.36
2019-03-01T22:59:47.312Z,10.75
2019-03-01T23:02:20.112Z,10.91
2019-03-01T23:04:49.615Z,10.63
2019-03-01T23:07:19.099Z,10.59
2019-03-01T23:09:48.593Z,10.29
2019-03-01T23:12:18.080Z,9.83
2019-03-01T23:14:47.566Z,10.37
2019-03-01T23:17:17.129Z,10.00
2019-03-01T23:19:47.693Z,10.08
2019-03-01T23:22:17.783Z,9.68
2019-03-01T23:24:49.336Z,9.69
2019-03-01T23:27:18.445Z,9.82
2019-03-01T23:29:50.950Z,9.59
2019-03-01T23:32:19.097Z,9.76
2019-03-01T23:34:48.660Z,9.23
2019-03-01T23:37:18.219Z,9.47
2019-03-01T23:39:47.749Z,9.64
2019-03-01T23:42:20.481Z,9.35
2019-03-01T23:44:48.734Z,10.31
2019-03-01T23:47:18.242Z,10.55
2019-03-01T23:49:47.730Z,10.38
2019-03-01T23:52:19.599Z,10.25
2019-03-01T23:54:48.395Z,10.53
2019-03-01T23:57:18.218Z,10.39
2019-03-01T23:59:47.712Z,10.16
